createdAt,value
2023-03-14T00:01:25.851Z,98852.50
2023-03-14T00:03:57.302Z,98860.75
2023-03-14T00:06:28.344Z,98865.97
2023-03-14T00:08:58.448Z,98871.03
2023-03-14T00:11:28.673Z,98877.75
2023-03-14T00:13:58.605Z,98877.13
2023-03-14T00:16:30.024Z,98883.00
2023-03-14T00:19:02.469Z,98893.09
2023-03-14T00:21:32.232Z,98895.13
2023-03-14T00:24:02.450Z,98875.78
2023-03-14T00:26:32.083Z,98890.06
2023-03-14T00:29:02.087Z,98880.41
2023-03-14T00:31:32.159Z,98877.84
2023-03-14T00:34:03.603Z,98862.66
2023-03-14T00:36:35.015Z,98868.31
2023-03-14T00:39:05.223Z,98865.97
2023-03-14T00:41:34.901Z,98864.44
2023-03-14T00:44:05.020Z,98852.66
2023-03-14T00:46:34.874Z,98849.03
2023-03-14T00:49:06.454Z,98854.59
2023-03-14T00:51:36.180Z,98853.69
2023-03-14T00:54:06.150Z,98859.44
2023-03-14T00:56:35.911Z,98862.84
2023-03-14T00:59:06.223Z,98859.66
2023-03-14T01:01:36.020Z,98863.34
2023-03-14T01:04:07.943Z,98870.41
2023-03-14T01:06:37.648Z,98871.50
2023-03-14T01:09:07.950Z,98858.88
2023-03-14T01:11:38.427Z,98849.22
2023-03-14T01:14:08.525Z,98838.19
2023-03-14T01:16:38.161Z,98825.91
2023-03-14T01:19:09.736Z,98831.09
2023-03-14T01:21:39.809Z,98827.94
2023-03-14T01:24:09.989Z,98851.00
2023-03-14T01:26:39.554Z,98833.94
2023-03-14T01:29:10.834Z,98814.66
2023-03-14T01:31:41.957Z,98828.94
2023-03-14T01:34:13.487Z,98820.94
2023-03-14T01:36:43.491Z,98820.75
2023-03-14T01:39:14.362Z,98822.91
2023-03-14T01:41:44.310Z,98822.16
2023-03-14T01:44:14.757Z,98824.50
2023-03-14T01:46:45.307Z,98814.03
2023-03-14T01:49:20.785Z,98820.75
2023-03-14T01:51:59.340Z,98814.84
2023-03-14T01:54:32.764Z,98815.00
2023-03-14T01:57:06.168Z,98813.28
2023-03-14T01:59:37.262Z,98804.56
2023-03-14T02:02:08.968Z,98805.28
2023-03-14T02:04:41.464Z,98799.94
2023-03-14T02:07:14.636Z,98785.06
2023-03-14T02:09:51.595Z,98781.09
2023-03-14T02:12:27.447Z,98788.34
2023-03-14T02:15:15.864Z,98777.91
2023-03-14T02:18:01.356Z,98790.13
2023-03-14T02:20:54.563Z,98774.22
2023-03-14T02:23:28.042Z,98782.25
2023-03-14T02:26:00.922Z,98796.72
2023-03-14T02:28:32.092Z,98793.50
2023-03-14T02:31:04.776Z,98788.28
2023-03-14T02:33:37.982Z,98777.78
2023-03-14T02:36:10.113Z,98784.03
2023-03-14T02:38:43.453Z,98788.63
2023-03-14T02:41:13.460Z,98789.13
2023-03-14T02:43:50.717Z,98788.72
2023-03-14T02:46:21.438Z,98783.34
2023-03-14T02:48:53.204Z,98761.50
2023-03-14T02:51:23.930Z,98764.44
2023-03-14T02:53:53.630Z,98767.31
2023-03-14T02:56:25.579Z,98771.09
2023-03-14T02:58:58.985Z,98778.16
2023-03-14T03:01:36.689Z,98792.22
2023-03-14T03:04:06.677Z,98804.75
2023-03-14T03:06:36.639Z,98819.16
2023-03-14T03:09:06.329Z,98827.97
2023-03-14T03:11:36.488Z,98821.91
2023-03-14T03:14:09.369Z,98818.53
2023-03-14T03:16:39.285Z,98818.16
2023-03-14T03:19:08.899Z,98835.13
2023-03-14T03:21:38.750Z,98849.09
2023-03-14T03:24:08.753Z,98851.63
2023-03-14T03:26:39.134Z,98855.25
2023-03-14T03:29:13.309Z,98861.69
2023-03-14T03:31:43.354Z,98855.25
2023-03-14T03:34:13.600Z,98853.22
2023-03-14T03:36:44.446Z,98862.94
2023-03-14T03:39:15.067Z,98862.03
2023-03-14T03:41:45.466Z,98868.00
2023-03-14T03:44:16.678Z,98864.41
2023-03-14T03:46:46.778Z,98861.50
2023-03-14T03:49:16.335Z,98874.69
2023-03-14T03:51:46.358Z,98865.28
2023-03-14T03:54:16.568Z,98861.91
2023-03-14T03:56:46.459Z,98862.03
2023-03-14T03:59:17.627Z,98853.97
2023-03-14T04:01:48.897Z,98853.59
2023-03-14T04:04:19.247Z,98839.41
2023-03-14T04:06:50.490Z,98836.75
2023-03-14T04:09:21.057Z,98827.22
2023-03-14T04:12:10.201Z,98831.84
2023-03-14T04:14:58.351Z,98836.81
2023-03-14T04:17:28.732Z,98839.63
2023-03-14T04:19:58.477Z,98830.59
2023-03-14T04:22:36.250Z,98821.06
2023-03-14T04:25:06.501Z,98821.38
2023-03-14T04:27:40.762Z,98806.44
2023-03-14T04:30:20.666Z,98810.97
2023-03-14T04:33:11.196Z,98806.28
2023-03-14T04:35:47.329Z,98807.31
2023-03-14T04:38:19.101Z,98801.31
2023-03-14T04:40:51.157Z,98801.31
2023-03-14T04:43:22.699Z,98795.25
2023-03-14T04:46:02.337Z,98797.03
2023-03-14T04:48:32.370Z,98788.06
2023-03-14T04:51:02.895Z,98781.25
2023-03-14T04:53:36.968Z,98782.38
2023-03-14T04:56:10.283Z,98768.44
2023-03-14T04:58:42.531Z,98765.72
2023-03-14T05:01:13.879Z,98755.91
2023-03-14T05:04:07.272Z,98759.72
2023-03-14T05:06:53.274Z,98743.13
2023-03-14T05:09:37.632Z,98746.03
2023-03-14T05:12:42.678Z,98740.22
2023-03-14T05:15:30.987Z,98727.19
2023-03-14T05:18:20.329Z,98719.53
2023-03-14T05:21:02.043Z,98718.56
2023-03-14T05:23:57.832Z,98716.31
2023-03-14T05:26:49.003Z,98723.56
2023-03-14T05:29:30.647Z,98730.78
2023-03-14T05:32:20.945Z,98722.72
2023-03-14T05:35:16.416Z,98723.91
2023-03-14T05:37:55.750Z,98730.94
2023-03-14T05:40:34.256Z,98741.47
2023-03-14T05:43:39.392Z,98740.44
2023-03-14T05:46:27.543Z,98744.66
2023-03-14T05:49:05.814Z,98755.97
2023-03-14T05:51:57.162Z,98763.09
2023-03-14T05:54:30.128Z,98768.31
2023-03-14T05:57:10.172Z,98761.31
2023-03-14T06:00:09.903Z,98743.63
2023-03-14T06:03:01.754Z,98750.72
2023-03-14T06:05:36.924Z,98763.19
2023-03-14T06:08:08.610Z,98759.38
2023-03-14T06:10:39.498Z,98760.41
2023-03-14T06:13:09.070Z,98755.09
2023-03-14T06:15:39.008Z,98756.72
2023-03-14T06:18:08.732Z,98762.81
2023-03-14T06:20:40.428Z,98782.03
2023-03-14T06:23:13.708Z,98770.34
2023-03-14T06:25:44.513Z,98769.31
2023-03-14T06:28:14.061Z,98774.41
2023-03-14T06:30:44.177Z,98762.94
2023-03-14T06:33:15.941Z,98766.22
2023-03-14T06:35:46.670Z,98767.94
2023-03-14T06:38:18.081Z,98774.84
2023-03-14T06:40:49.333Z,98776.63
2023-03-14T06:43:29.341Z,98781.78
2023-03-14T06:45:59.396Z,98777.31
2023-03-14T06:48:29.229Z,98764.00
2023-03-14T06:50:59.473Z,98766.28
2023-03-14T06:53:31.235Z,98768.03
2023-03-14T06:56:03.226Z,98781.75
2023-03-14T06:58:35.332Z,98780.88
2023-03-14T07:01:08.384Z,98768.56
2023-03-14T07:03:43.653Z,98774.56
2023-03-14T07:06:14.192Z,98776.25
2023-03-14T07:08:45.272Z,98768.16
2023-03-14T07:11:15.290Z,98775.19
2023-03-14T07:13:45.062Z,98773.22
2023-03-14T07:16:15.604Z,98772.88
2023-03-14T07:18:45.371Z,98775.16
2023-03-14T07:21:15.322Z,98771.59
2023-03-14T07:23:46.471Z,98776.63
2023-03-14T07:26:17.443Z,98763.13
2023-03-14T07:28:52.242Z,98758.47
2023-03-14T07:31:23.489Z,98749.44
2023-03-14T07:33:53.261Z,98741.22
2023-03-14T07:36:25.364Z,98736.59
2023-03-14T07:38:58.713Z,98738.97
2023-03-14T07:41:37.742Z,98736.03
2023-03-14T07:44:25.846Z,98740.06
2023-03-14T07:46:56.143Z,98741.50
2023-03-14T07:49:25.945Z,98747.28
2023-03-14T07:51:56.059Z,98737.22
2023-03-14T07:54:27.449Z,98716.41
2023-03-14T07:56:57.368Z,98721.28
2023-03-14T07:59:26.880Z,98725.44
2023-03-14T08:01:56.937Z,98722.69
2023-03-14T08:04:26.608Z,98715.47
2023-03-14T08:06:57.006Z,98715.94
2023-03-14T08:09:28.150Z,98717.44
2023-03-14T08:11:58.827Z,98715.72
2023-03-14T08:14:30.398Z,98716.50
2023-03-14T08:17:00.872Z,98709.31
2023-03-14T08:19:30.686Z,98705.75
2023-03-14T08:22:07.071Z,98704.72
2023-03-14T08:24:45.352Z,98703.56
2023-03-14T08:27:16.396Z,98710.38
2023-03-14T08:29:47.078Z,98705.47
2023-03-14T08:32:32.083Z,98694.63
2023-03-14T08:35:03.010Z,98696.41
2023-03-14T08:37:33.579Z,98692.97
2023-03-14T08:40:07.611Z,98688.53
2023-03-14T08:42:37.592Z,98672.63
2023-03-14T08:45:12.646Z,98665.53
2023-03-14T08:47:59.876Z,98664.63
2023-03-14T08:50:29.452Z,98659.03
2023-03-14T08:53:02.139Z,98659.91
2023-03-14T08:55:33.378Z,98659.97
2023-03-14T08:58:03.245Z,98670.47
2023-03-14T09:00:32.846Z,98680.81
2023-03-14T09:03:02.890Z,98673.19
2023-03-14T09:05:35.222Z,98677.34
2023-03-14T09:08:05.255Z,98678.22
2023-03-14T09:10:36.408Z,98669.50
2023-03-14T09:13:06.544Z,98653.00
2023-03-14T09:15:36.388Z,98655.56
2023-03-14T09:18:06.559Z,98661.31
2023-03-14T09:20:36.407Z,98677.34
2023-03-14T09:23:06.339Z,98681.06
2023-03-14T09:25:37.513Z,98691.69
2023-03-14T09:28:07.589Z,98698.50
2023-03-14T09:30:37.228Z,98703.91
2023-03-14T09:33:07.328Z,98700.63
2023-03-14T09:35:37.253Z,98706.13
2023-03-14T09:38:07.786Z,98705.72
2023-03-14T09:40:39.170Z,98703.63
2023-03-14T09:43:12.672Z,98697.81
2023-03-14T09:45:44.181Z,98708.88
2023-03-14T09:48:17.975Z,98706.44
2023-03-14T09:50:48.952Z,98701.41
2023-03-14T09:53:20.322Z,98698.94
2023-03-14T09:55:52.328Z,98714.34
2023-03-14T09:58:23.590Z,98713.47
2023-03-14T10:00:54.964Z,98716.34
2023-03-14T10:03:27.605Z,98701.94
2023-03-14T10:05:57.566Z,98710.78
2023-03-14T10:08:27.627Z,98716.19
2023-03-14T10:10:58.824Z,98712.75
2023-03-14T10:13:30.633Z,98718.13
2023-03-14T10:16:02.469Z,98705.84
2023-03-14T10:18:35.374Z,98707.78
2023-03-14T10:21:05.963Z,98710.59
2023-03-14T10:23:36.710Z,98721.31
2023-03-14T10:26:10.346Z,98720.47
2023-03-14T10:28:42.352Z,98724.75
2023-03-14T10:31:12.285Z,98725.59
2023-03-14T10:33:43.048Z,98727.31
2023-03-14T10:36:22.214Z,98726.34
2023-03-14T10:38:52.403Z,98730.53
2023-03-14T10:41:28.349Z,98725.78
2023-03-14T10:44:00.811Z,98722.06
2023-03-14T10:46:33.468Z,98728.78
2023-03-14T10:49:28.475Z,98724.19
2023-03-14T10:52:03.200Z,98733.63
2023-03-14T10:54:33.388Z,98728.09
2023-03-14T10:57:07.195Z,98723.72
2023-03-14T10:59:38.403Z,98715.91
2023-03-14T11:02:18.293Z,98704.25
2023-03-14T11:04:56.721Z,98696.75
2023-03-14T11:07:30.198Z,98694.00
2023-03-14T11:10:03.664Z,98695.78
2023-03-14T11:12:40.920Z,98697.84
2023-03-14T11:15:17.894Z,98692.84
2023-03-14T11:17:56.410Z,98690.88
2023-03-14T11:20:33.788Z,98688.75
2023-03-14T11:23:06.790Z,98679.47
2023-03-14T11:25:45.641Z,98673.44
2023-03-14T11:28:20.766Z,98676.59
2023-03-14T11:30:53.594Z,98692.94
2023-03-14T11:33:26.411Z,98685.63
2023-03-14T11:36:01.393Z,98675.63
2023-03-14T11:38:32.206Z,98686.91
2023-03-14T11:41:02.449Z,98687.66
2023-03-14T11:43:36.289Z,98672.75
2023-03-14T11:46:08.799Z,98674.25
2023-03-14T11:48:42.165Z,98667.97
2023-03-14T11:51:16.614Z,98665.66
2023-03-14T11:53:50.931Z,98672.44
2023-03-14T11:56:25.812Z,98649.31
2023-03-14T11:59:00.130Z,98653.75
2023-03-14T12:01:36.647Z,98656.75
2023-03-14T12:04:12.960Z,98670.38
2023-03-14T12:06:49.349Z,98668.47
2023-03-14T12:09:20.252Z,98676.47
2023-03-14T12:11:54.050Z,98671.94
2023-03-14T12:14:27.437Z,98673.41
2023-03-14T12:17:01.172Z,98671.09
2023-03-14T12:19:35.445Z,98669.31
2023-03-14T12:22:19.479Z,98668.34
2023-03-14T12:24:51.690Z,98660.63
2023-03-14T12:27:39.478Z,98668.97
2023-03-14T12:30:18.118Z,98667.28
2023-03-14T12:33:13.340Z,98679.88
2023-03-14T12:35:43.902Z,98674.22
2023-03-14T12:38:16.037Z,98670.94
2023-03-14T12:40:55.909Z,98675.78
2023-03-14T12:43:30.399Z,98676.06
2023-03-14T12:46:14.863Z,98674.47
2023-03-14T12:48:47.496Z,98667.81
2023-03-14T12:51:18.432Z,98665.56
2023-03-14T12:54:01.862Z,98656.47
2023-03-14T12:56:41.280Z,98657.00
2023-03-14T12:59:30.390Z,98663.78
2023-03-14T13:02:02.698Z,98666.34
2023-03-14T13:04:40.305Z,98672.47
2023-03-14T13:07:14.818Z,98660.53
2023-03-14T13:09:59.766Z,98653.75
2023-03-14T13:12:37.394Z,98656.94
2023-03-14T13:15:18.107Z,98657.09
2023-03-14T13:17:49.376Z,98646.16
2023-03-14T13:20:23.301Z,98642.03
2023-03-14T13:22:53.519Z,98646.63
2023-03-14T13:25:24.346Z,98641.41
2023-03-14T13:27:56.944Z,98647.00
2023-03-14T13:30:28.083Z,98641.31
2023-03-14T13:32:58.322Z,98630.28
2023-03-14T13:35:32.232Z,98639.81
2023-03-14T13:38:18.066Z,98631.97
2023-03-14T13:40:50.336Z,98640.34
2023-03-14T13:43:21.992Z,98634.38
2023-03-14T13:45:53.582Z,98648.06
2023-03-14T13:48:24.115Z,98647.44
2023-03-14T13:50:57.360Z,98642.75
2023-03-14T13:53:27.376Z,98646.25
2023-03-14T13:55:57.399Z,98639.06
2023-03-14T13:58:30.554Z,98638.72
2023-03-14T14:01:08.098Z,98637.78
2023-03-14T14:03:40.495Z,98640.41
2023-03-14T14:06:19.141Z,98646.53
2023-03-14T14:08:48.809Z,98653.63
2023-03-14T14:11:28.016Z,98656.81
2023-03-14T14:14:02.828Z,98662.34
2023-03-14T14:16:33.898Z,98666.47
2023-03-14T14:19:04.295Z,98672.34
2023-03-14T14:21:35.817Z,98671.53
2023-03-14T14:24:08.333Z,98667.66
2023-03-14T14:26:42.199Z,98671.59
2023-03-14T14:29:24.146Z,98670.03
2023-03-14T14:32:02.851Z,98666.75
2023-03-14T14:34:41.396Z,98670.94
2023-03-14T14:37:32.223Z,98671.78
2023-03-14T14:40:09.339Z,98661.03
2023-03-14T14:42:42.667Z,98664.31
2023-03-14T14:45:15.936Z,98655.47
2023-03-14T14:47:53.154Z,98655.47
2023-03-14T14:50:29.445Z,98660.94
2023-03-14T14:53:00.233Z,98663.69
2023-03-14T14:55:34.877Z,98660.47
2023-03-14T14:58:14.734Z,98662.38
2023-03-14T15:00:52.599Z,98662.19
2023-03-14T15:03:22.598Z,98666.66
2023-03-14T15:05:52.311Z,98651.63
2023-03-14T15:08:22.401Z,98650.88
2023-03-14T15:10:53.513Z,98653.66
2023-03-14T15:13:23.600Z,98653.25
2023-03-14T15:15:57.373Z,98664.06
2023-03-14T15:18:30.887Z,98661.25
2023-03-14T15:21:01.488Z,98654.91
2023-03-14T15:23:31.444Z,98662.28
2023-03-14T15:26:02.537Z,98664.22
2023-03-14T15:28:32.568Z,98666.03
2023-03-14T15:31:02.463Z,98660.09
2023-03-14T15:33:32.526Z,98669.28
2023-03-14T15:36:02.441Z,98671.31
2023-03-14T15:38:33.249Z,98663.41
2023-03-14T15:41:04.508Z,98668.75
2023-03-14T15:43:35.601Z,98678.56
2023-03-14T15:46:07.518Z,98671.63
2023-03-14T15:48:37.639Z,98685.88
2023-03-14T15:51:07.485Z,98679.59
2023-03-14T15:53:39.322Z,98687.91
2023-03-14T15:56:13.533Z,98683.69
2023-03-14T15:58:47.735Z,98694.56
2023-03-14T16:01:18.275Z,98699.00
2023-03-14T16:03:50.390Z,98700.75
2023-03-14T16:06:20.384Z,98698.31
2023-03-14T16:08:50.645Z,98703.00
2023-03-14T16:11:23.099Z,98703.16
2023-03-14T16:13:53.472Z,98714.72
2023-03-14T16:16:23.078Z,98718.63
2023-03-14T16:18:53.381Z,98708.28
2023-03-14T16:21:23.520Z,98709.31
2023-03-14T16:23:53.439Z,98716.75
2023-03-14T16:26:25.747Z,98708.13
2023-03-14T16:28:57.717Z,98716.41
2023-03-14T16:31:27.241Z,98707.09
2023-03-14T16:33:57.560Z,98707.22
2023-03-14T16:36:28.924Z,98706.66
2023-03-14T16:38:59.047Z,98706.19
2023-03-14T16:41:31.944Z,98711.69
2023-03-14T16:44:03.763Z,98715.38
2023-03-14T16:46:37.226Z,98716.44
2023-03-14T16:49:10.098Z,98714.09
2023-03-14T16:51:40.798Z,98723.22
2023-03-14T16:54:11.243Z,98716.25
2023-03-14T16:56:42.237Z,98721.91
2023-03-14T16:59:12.660Z,98726.16
2023-03-14T17:01:43.240Z,98722.78
2023-03-14T17:04:13.694Z,98723.84
2023-03-14T17:06:45.932Z,98732.00
2023-03-14T17:09:16.685Z,98737.34
2023-03-14T17:11:48.408Z,98735.78
2023-03-14T17:14:20.033Z,98744.69
2023-03-14T17:16:51.214Z,98742.25
2023-03-14T17:19:21.414Z,98746.19
2023-03-14T17:21:57.915Z,98743.81
2023-03-14T17:24:28.863Z,98741.09
2023-03-14T17:27:00.525Z,98735.47
2023-03-14T17:29:31.361Z,98739.91
2023-03-14T17:32:01.108Z,98742.25
2023-03-14T17:34:31.398Z,98740.78
2023-03-14T17:37:01.064Z,98756.00
2023-03-14T17:39:31.029Z,98750.19
2023-03-14T17:42:03.451Z,98754.19
2023-03-14T17:44:35.136Z,98761.47
2023-03-14T17:47:04.813Z,98759.69
2023-03-14T17:49:39.817Z,98751.91
2023-03-14T17:52:20.336Z,98756.09
2023-03-14T17:54:58.423Z,98757.88
2023-03-14T17:57:39.783Z,98760.25
2023-03-14T18:00:18.862Z,98757.31
2023-03-14T18:02:54.288Z,98754.44
2023-03-14T18:05:28.477Z,98751.81
2023-03-14T18:07:58.440Z,98753.19
2023-03-14T18:10:29.451Z,98755.22
2023-03-14T18:13:02.507Z,98748.31
2023-03-14T18:15:39.519Z,98750.84
2023-03-14T18:18:15.042Z,98739.22
2023-03-14T18:20:51.744Z,98746.97
2023-03-14T18:23:32.291Z,98748.91
2023-03-14T18:26:07.483Z,98755.47
2023-03-14T18:28:38.855Z,98750.09
2023-03-14T18:31:09.521Z,98755.88
2023-03-14T18:33:44.348Z,98758.78
2023-03-14T18:36:19.342Z,98752.41
2023-03-14T18:38:58.748Z,98752.50
2023-03-14T18:41:40.507Z,98765.50
2023-03-14T18:44:20.553Z,98766.81
2023-03-14T18:46:56.690Z,98761.91
2023-03-14T18:49:36.565Z,98763.53
2023-03-14T18:52:13.745Z,98763.69
2023-03-14T18:54:44.646Z,98767.03
2023-03-14T18:57:16.333Z,98772.13
2023-03-14T18:59:54.703Z,98773.03
2023-03-14T19:02:26.417Z,98780.34
2023-03-14T19:04:56.393Z,98798.84
2023-03-14T19:07:29.404Z,98798.72
2023-03-14T19:10:02.765Z,98822.13
2023-03-14T19:12:33.406Z,98824.53
2023-03-14T19:15:05.143Z,98822.03
2023-03-14T19:17:36.347Z,98823.50
2023-03-14T19:20:07.728Z,98836.91
2023-03-14T19:22:40.488Z,98841.75
2023-03-14T19:25:12.679Z,98858.66
2023-03-14T19:27:48.744Z,98870.03
2023-03-14T19:30:23.416Z,98927.22
2023-03-14T19:32:54.377Z,98971.38
2023-03-14T19:35:24.189Z,98989.41
2023-03-14T19:37:54.203Z,98994.63
2023-03-14T19:40:23.890Z,99028.28
2023-03-14T19:42:53.769Z,99019.72
2023-03-14T19:45:24.936Z,99058.94
2023-03-14T19:47:54.806Z,99052.78
2023-03-14T19:50:26.185Z,99063.72
2023-03-14T19:52:56.406Z,99092.09
2023-03-14T19:55:27.288Z,99087.38
2023-03-14T19:57:57.300Z,99090.38
2023-03-14T20:00:28.299Z,99109.78
2023-03-14T20:02:58.442Z,99127.41
2023-03-14T20:05:27.997Z,99133.66
2023-03-14T20:07:57.834Z,99117.97
2023-03-14T20:10:27.602Z,99125.84
2023-03-14T20:13:00.948Z,99125.97
2023-03-14T20:15:32.200Z,99129.50
2023-03-14T20:18:02.371Z,99122.56
2023-03-14T20:20:32.019Z,99131.38
2023-03-14T20:23:02.302Z,99159.41
2023-03-14T20:25:32.614Z,99169.13
2023-03-14T20:28:04.581Z,99184.81
2023-03-14T20:30:35.914Z,99171.72
2023-03-14T20:33:06.262Z,99178.72
2023-03-14T20:35:36.376Z,99179.59
2023-03-14T20:38:06.339Z,99195.28
2023-03-14T20:40:36.090Z,99204.03
2023-03-14T20:43:06.322Z,99202.28
2023-03-14T20:45:37.464Z,99211.88
2023-03-14T20:48:07.925Z,99221.50
2023-03-14T20:50:39.170Z,99229.38
2023-03-14T20:53:09.426Z,99241.59
2023-03-14T20:55:39.293Z,99252.94
2023-03-14T20:58:10.984Z,99251.22
2023-03-14T21:00:42.874Z,99266.09
2023-03-14T21:03:14.766Z,99273.06
2023-03-14T21:05:45.558Z,99271.31
2023-03-14T21:08:16.420Z,99282.69
2023-03-14T21:10:48.388Z,99283.59
2023-03-14T21:13:18.817Z,99286.22
2023-03-14T21:15:50.198Z,99285.34
2023-03-14T21:18:23.470Z,99287.97
2023-03-14T21:20:54.720Z,99300.19
2023-03-14T21:23:26.870Z,99297.56
2023-03-14T21:25:57.322Z,99315.06
2023-03-14T21:28:27.921Z,99301.94
2023-03-14T21:31:05.340Z,99329.91
2023-03-14T21:33:36.353Z,99344.75
2023-03-14T21:36:06.540Z,99357.81
2023-03-14T21:38:37.026Z,99361.31
2023-03-14T21:41:07.966Z,99370.94
2023-03-14T21:43:38.255Z,99367.44
2023-03-14T21:46:09.408Z,99355.25
2023-03-14T21:48:39.592Z,99350.88
2023-03-14T21:51:09.515Z,99356.09
2023-03-14T21:53:39.414Z,99370.06
2023-03-14T21:56:09.531Z,99382.28
2023-03-14T21:58:39.623Z,99392.78
2023-03-14T22:01:11.086Z,99393.63
2023-03-14T22:03:41.112Z,99384.03
2023-03-14T22:06:10.910Z,99397.97
2023-03-14T22:08:41.028Z,99392.75
2023-03-14T22:11:10.599Z,99390.13
2023-03-14T22:13:40.789Z,99393.59
2023-03-14T22:16:12.208Z,99399.72
2023-03-14T22:18:42.487Z,99386.63
2023-03-14T22:21:12.167Z,99402.34
2023-03-14T22:23:42.097Z,99425.03
2023-03-14T22:26:11.836Z,99425.88
2023-03-14T22:28:41.877Z,99420.66
2023-03-14T22:31:13.273Z,99435.47
2023-03-14T22:33:43.375Z,99448.53
2023-03-14T22:36:13.273Z,99459.91
2023-03-14T22:38:43.508Z,99466.00
2023-03-14T22:41:13.373Z,99478.22
2023-03-14T22:43:43.544Z,99470.38
2023-03-14T22:46:14.756Z,99485.19
2023-03-14T22:48:44.694Z,99489.59
2023-03-14T22:51:15.035Z,99511.41
2023-03-14T22:53:44.894Z,99528.88
2023-03-14T22:56:14.555Z,99535.88
2023-03-14T22:58:44.503Z,99535.00
2023-03-14T23:01:15.755Z,99539.38
2023-03-14T23:03:45.779Z,99549.84
2023-03-14T23:06:15.438Z,99554.22
2023-03-14T23:08:45.841Z,99557.72
2023-03-14T23:11:15.568Z,99570.84
2023-03-14T23:13:47.965Z,99583.06
2023-03-14T23:16:25.199Z,99587.41
2023-03-14T23:19:00.298Z,99598.78
2023-03-14T23:21:29.896Z,99601.41
2023-03-14T23:23:59.782Z,99604.03
2023-03-14T23:26:30.978Z,99611.03
2023-03-14T23:29:00.846Z,99620.63
2023-03-14T23:31:31.824Z,99632.84
2023-03-14T23:34:01.753Z,99619.75
2023-03-14T23:36:31.289Z,99609.28
2023-03-14T23:39:01.263Z,99639.88
2023-03-14T23:41:30.770Z,99648.59
2023-03-14T23:44:02.047Z,99646.00
2023-03-14T23:46:33.230Z,99651.22
2023-03-14T23:49:03.673Z,99660.84
2023-03-14T23:51:33.212Z,99659.09
2023-03-14T23:54:03.100Z,99670.44
2023-03-14T23:56:32.729Z,99672.22
2023-03-14T23:59:02.544Z,99679.19
